Finley, Washington
Current Conditions -  °F | °C
As of 3:53 PM on Monday 20 Oct 2014 (Local Time) from KPSC Reporting Station
Overcast Overcast  
Wind Chill: 69°   Ceiling: 6000
Heat Index: 69°   Visibility: 10mi
Dew Point: 48°   Wind: 18mph
Humidity: 47%   Direction: 280°W
Pressure: 29.75"   Gusts: 26mph
Location:  46.2117°N, 119.173°W
Report Text: KPSC 202253Z 28016G23KT 10SM BKN060 OVC100 21/09 A2975 RMK AO2 SLP072 T02060089
Loading
Personal Weather Stations






























Interactive Weather Map
Tropical Storm Tracking
New forecast layout! Learn more

10-Day Weather Forecast

Advertisements
Track Severe Weather on mobile